sensor_id;sensor_type;location;lat;lon;timestamp;P1;durP1;ratioP1;P2;durP2;ratioP2
37771;SDS011;23610;59.380;24.642;2022-08-19T00:04:38;9.80;;;5.97;;
37771;SDS011;23610;59.380;24.642;2022-08-19T00:09:41;7.57;;;5.95;;
37771;SDS011;23610;59.380;24.642;2022-08-19T00:14:44;16.25;;;6.93;;
37771;SDS011;23610;59.380;24.642;2022-08-19T00:19:46;13.27;;;5.88;;
37771;SDS011;23610;59.380;24.642;2022-08-19T00:24:49;11.38;;;6.95;;
37771;SDS011;23610;59.380;24.642;2022-08-19T00:29:51;9.20;;;6.95;;
37771;SDS011;23610;59.380;24.642;2022-08-19T00:34:54;12.85;;;6.95;;
37771;SDS011;23610;59.380;24.642;2022-08-19T00:39:57;14.23;;;7.45;;
37771;SDS011;23610;59.380;24.642;2022-08-19T00:45:00;11.73;;;7.72;;
37771;SDS011;23610;59.380;24.642;2022-08-19T00:50:04;20.87;;;8.10;;
37771;SDS011;23610;59.380;24.642;2022-08-19T00:55:09;12.85;;;7.25;;
37771;SDS011;23610;59.380;24.642;2022-08-19T01:00:22;7.78;;;6.75;;
37771;SDS011;23610;59.380;24.642;2022-08-19T01:05:27;10.13;;;7.40;;
37771;SDS011;23610;59.380;24.642;2022-08-19T01:10:37;11.13;;;6.73;;
37771;SDS011;23610;59.380;24.642;2022-08-19T01:15:58;9.90;;;7.28;;
37771;SDS011;23610;59.380;24.642;2022-08-19T01:26:18;20.65;;;8.27;;
37771;SDS011;23610;59.380;24.642;2022-08-19T01:31:25;20.15;;;8.35;;
37771;SDS011;23610;59.380;24.642;2022-08-19T01:36:37;12.88;;;8.40;;
37771;SDS011;23610;59.380;24.642;2022-08-19T01:41:50;15.75;;;7.68;;
37771;SDS011;23610;59.380;24.642;2022-08-19T01:46:55;13.30;;;7.80;;
37771;SDS011;23610;59.380;24.642;2022-08-19T01:51:59;15.00;;;7.97;;
37771;SDS011;23610;59.380;24.642;2022-08-19T01:57:03;13.35;;;8.35;;
37771;SDS011;23610;59.380;24.642;2022-08-19T02:02:10;12.27;;;7.32;;
37771;SDS011;23610;59.380;24.642;2022-08-19T02:07:12;14.85;;;7.82;;
37771;SDS011;23610;59.380;24.642;2022-08-19T02:12:15;13.38;;;8.55;;
37771;SDS011;23610;59.380;24.642;2022-08-19T02:17:18;14.48;;;8.23;;
37771;SDS011;23610;59.380;24.642;2022-08-19T02:22:22;14.05;;;7.22;;
37771;SDS011;23610;59.380;24.642;2022-08-19T02:27:27;12.90;;;8.43;;
37771;SDS011;23610;59.380;24.642;2022-08-19T02:32:30;15.52;;;8.50;;
37771;SDS011;23610;59.380;24.642;2022-08-19T02:37:34;14.98;;;8.80;;
37771;SDS011;23610;59.380;24.642;2022-08-19T02:42:56;14.73;;;8.10;;
37771;SDS011;23610;59.380;24.642;2022-08-19T02:47:58;12.45;;;8.48;;
37771;SDS011;23610;59.380;24.642;2022-08-19T02:53:03;11.38;;;7.47;;
37771;SDS011;23610;59.380;24.642;2022-08-19T02:58:06;21.13;;;8.40;;
37771;SDS011;23610;59.380;24.642;2022-08-19T03:03:09;15.60;;;8.35;;
37771;SDS011;23610;59.380;24.642;2022-08-19T03:08:12;11.77;;;7.35;;
37771;SDS011;23610;59.380;24.642;2022-08-19T03:13:16;13.70;;;7.72;;
37771;SDS011;23610;59.380;24.642;2022-08-19T03:18:20;14.30;;;8.32;;
37771;SDS011;23610;59.380;24.642;2022-08-19T03:23:23;10.82;;;8.13;;
37771;SDS011;23610;59.380;24.642;2022-08-19T03:28:26;18.00;;;8.52;;
37771;SDS011;23610;59.380;24.642;2022-08-19T03:33:30;9.80;;;7.45;;
37771;SDS011;23610;59.380;24.642;2022-08-19T03:38:36;15.40;;;8.20;;
37771;SDS011;23610;59.380;24.642;2022-08-19T03:43:42;19.50;;;8.20;;
37771;SDS011;23610;59.380;24.642;2022-08-19T03:48:48;12.13;;;8.95;;
37771;SDS011;23610;59.380;24.642;2022-08-19T03:53:55;16.33;;;7.93;;
37771;SDS011;23610;59.380;24.642;2022-08-19T03:58:58;12.93;;;7.40;;
37771;SDS011;23610;59.380;24.642;2022-08-19T04:04:01;18.38;;;8.98;;
37771;SDS011;23610;59.380;24.642;2022-08-19T04:09:06;13.67;;;8.77;;
37771;SDS011;23610;59.380;24.642;2022-08-19T04:14:13;13.30;;;7.72;;
37771;SDS011;23610;59.380;24.642;2022-08-19T04:19:20;16.65;;;8.52;;
37771;SDS011;23610;59.380;24.642;2022-08-19T04:24:24;10.57;;;9.00;;
37771;SDS011;23610;59.380;24.642;2022-08-19T04:29:27;12.55;;;9.13;;
37771;SDS011;23610;59.380;24.642;2022-08-19T04:34:31;8.93;;;7.22;;
37771;SDS011;23610;59.380;24.642;2022-08-19T04:39:34;10.18;;;8.02;;
37771;SDS011;23610;59.380;24.642;2022-08-19T04:44:59;11.45;;;8.20;;
37771;SDS011;23610;59.380;24.642;2022-08-19T04:50:02;12.52;;;9.02;;
37771;SDS011;23610;59.380;24.642;2022-08-19T04:55:11;11.75;;;8.35;;
37771;SDS011;23610;59.380;24.642;2022-08-19T05:00:15;17.00;;;8.55;;
37771;SDS011;23610;59.380;24.642;2022-08-19T05:05:18;10.80;;;7.82;;
37771;SDS011;23610;59.380;24.642;2022-08-19T05:10:21;19.63;;;8.75;;
37771;SDS011;23610;59.380;24.642;2022-08-19T05:15:24;18.98;;;9.05;;
37771;SDS011;23610;59.380;24.642;2022-08-19T05:20:26;17.83;;;8.55;;
37771;SDS011;23610;59.380;24.642;2022-08-19T05:25:48;13.13;;;7.70;;
37771;SDS011;23610;59.380;24.642;2022-08-19T05:30:51;36.53;;;8.23;;
37771;SDS011;23610;59.380;24.642;2022-08-19T05:35:56;13.85;;;7.65;;
37771;SDS011;23610;59.380;24.642;2022-08-19T05:41:00;17.50;;;8.60;;
37771;SDS011;23610;59.380;24.642;2022-08-19T05:46:07;16.25;;;7.97;;
37771;SDS011;23610;59.380;24.642;2022-08-19T05:51:17;19.25;;;8.52;;
37771;SDS011;23610;59.380;24.642;2022-08-19T05:56:20;14.65;;;8.27;;
37771;SDS011;23610;59.380;24.642;2022-08-19T06:01:22;17.27;;;8.18;;
37771;SDS011;23610;59.380;24.642;2022-08-19T06:06:26;13.60;;;7.28;;
37771;SDS011;23610;59.380;24.642;2022-08-19T06:16:56;14.45;;;7.70;;
37771;SDS011;23610;59.380;24.642;2022-08-19T06:22:07;16.65;;;7.70;;
37771;SDS011;23610;59.380;24.642;2022-08-19T06:27:11;23.27;;;7.20;;
37771;SDS011;23610;59.380;24.642;2022-08-19T06:32:14;12.25;;;7.35;;
37771;SDS011;23610;59.380;24.642;2022-08-19T06:37:20;16.27;;;7.43;;
37771;SDS011;23610;59.380;24.642;2022-08-19T06:42:23;11.82;;;6.75;;
37771;SDS011;23610;59.380;24.642;2022-08-19T06:47:26;14.00;;;6.47;;
37771;SDS011;23610;59.380;24.642;2022-08-19T06:52:33;11.87;;;6.83;;
37771;SDS011;23610;59.380;24.642;2022-08-19T06:57:38;13.43;;;6.82;;
37771;SDS011;23610;59.380;24.642;2022-08-19T07:02:42;10.50;;;7.03;;
37771;SDS011;23610;59.380;24.642;2022-08-19T07:13:04;21.23;;;7.65;;
37771;SDS011;23610;59.380;24.642;2022-08-19T07:18:07;16.83;;;6.68;;
37771;SDS011;23610;59.380;24.642;2022-08-19T07:23:12;16.92;;;7.25;;
37771;SDS011;23610;59.380;24.642;2022-08-19T07:28:16;10.95;;;6.75;;
37771;SDS011;23610;59.380;24.642;2022-08-19T07:33:25;16.52;;;5.78;;
37771;SDS011;23610;59.380;24.642;2022-08-19T07:38:28;13.23;;;6.20;;
37771;SDS011;23610;59.380;24.642;2022-08-19T07:43:31;12.25;;;7.38;;
37771;SDS011;23610;59.380;24.642;2022-08-19T07:48:35;9.18;;;6.63;;
37771;SDS011;23610;59.380;24.642;2022-08-19T07:53:38;12.13;;;7.22;;
37771;SDS011;23610;59.380;24.642;2022-08-19T07:58:41;13.05;;;7.18;;
37771;SDS011;23610;59.380;24.642;2022-08-19T08:03:49;10.43;;;6.90;;
37771;SDS011;23610;59.380;24.642;2022-08-19T08:09:13;15.18;;;6.90;;
37771;SDS011;23610;59.380;24.642;2022-08-19T08:14:24;18.20;;;6.78;;
37771;SDS011;23610;59.380;24.642;2022-08-19T08:19:35;13.50;;;6.35;;
37771;SDS011;23610;59.380;24.642;2022-08-19T08:24:39;16.17;;;6.95;;
37771;SDS011;23610;59.380;24.642;2022-08-19T08:29:41;13.10;;;6.05;;
37771;SDS011;23610;59.380;24.642;2022-08-19T08:34:45;13.50;;;5.95;;
37771;SDS011;23610;59.380;24.642;2022-08-19T08:39:52;18.45;;;5.72;;
37771;SDS011;23610;59.380;24.642;2022-08-19T08:44:59;14.77;;;5.28;;
37771;SDS011;23610;59.380;24.642;2022-08-19T08:50:22;14.38;;;5.50;;
37771;SDS011;23610;59.380;24.642;2022-08-19T08:55:41;18.65;;;4.93;;
37771;SDS011;23610;59.380;24.642;2022-08-19T09:00:45;14.37;;;5.77;;
37771;SDS011;23610;59.380;24.642;2022-08-19T09:11:34;8.25;;;5.30;;
37771;SDS011;23610;59.380;24.642;2022-08-19T09:16:52;13.23;;;4.72;;
37771;SDS011;23610;59.380;24.642;2022-08-19T09:21:55;13.05;;;5.78;;
37771;SDS011;23610;59.380;24.642;2022-08-19T09:26:58;11.30;;;5.13;;
37771;SDS011;23610;59.380;24.642;2022-08-19T09:32:03;16.52;;;5.35;;
37771;SDS011;23610;59.380;24.642;2022-08-19T09:37:27;7.03;;;4.55;;
37771;SDS011;23610;59.380;24.642;2022-08-19T09:42:29;7.10;;;4.37;;
37771;SDS011;23610;59.380;24.642;2022-08-19T09:47:36;11.55;;;4.38;;
37771;SDS011;23610;59.380;24.642;2022-08-19T09:52:41;11.68;;;4.60;;
37771;SDS011;23610;59.380;24.642;2022-08-19T09:57:58;14.13;;;4.90;;
37771;SDS011;23610;59.380;24.642;2022-08-19T10:03:02;9.20;;;3.78;;
37771;SDS011;23610;59.380;24.642;2022-08-19T10:08:07;13.85;;;4.40;;
37771;SDS011;23610;59.380;24.642;2022-08-19T10:13:15;7.28;;;3.70;;
37771;SDS011;23610;59.380;24.642;2022-08-19T10:18:26;5.80;;;3.80;;
37771;SDS011;23610;59.380;24.642;2022-08-19T10:23:28;6.95;;;3.92;;
37771;SDS011;23610;59.380;24.642;2022-08-19T10:28:36;9.20;;;4.07;;
37771;SDS011;23610;59.380;24.642;2022-08-19T10:33:39;7.88;;;4.45;;
37771;SDS011;23610;59.380;24.642;2022-08-19T10:38:55;7.18;;;3.47;;
37771;SDS011;23610;59.380;24.642;2022-08-19T10:44:02;7.07;;;3.92;;
37771;SDS011;23610;59.380;24.642;2022-08-19T10:54:37;7.70;;;3.92;;
37771;SDS011;23610;59.380;24.642;2022-08-19T11:00:05;16.17;;;3.65;;
37771;SDS011;23610;59.380;24.642;2022-08-19T11:05:09;12.15;;;3.63;;
37771;SDS011;23610;59.380;24.642;2022-08-19T11:10:16;9.85;;;4.03;;
37771;SDS011;23610;59.380;24.642;2022-08-19T11:15:22;9.43;;;4.10;;
37771;SDS011;23610;59.380;24.642;2022-08-19T11:20:25;13.52;;;4.43;;
37771;SDS011;23610;59.380;24.642;2022-08-19T11:25:28;14.95;;;3.80;;
37771;SDS011;23610;59.380;24.642;2022-08-19T11:30:31;12.90;;;4.38;;
37771;SDS011;23610;59.380;24.642;2022-08-19T11:35:38;8.45;;;3.83;;
37771;SDS011;23610;59.380;24.642;2022-08-19T11:40:42;4.97;;;4.00;;
37771;SDS011;23610;59.380;24.642;2022-08-19T11:45:45;17.25;;;3.95;;
37771;SDS011;23610;59.380;24.642;2022-08-19T11:50:50;7.40;;;3.83;;
37771;SDS011;23610;59.380;24.642;2022-08-19T11:55:56;7.68;;;3.88;;
37771;SDS011;23610;59.380;24.642;2022-08-19T12:00:59;4.60;;;3.55;;
37771;SDS011;23610;59.380;24.642;2022-08-19T12:06:05;5.53;;;3.20;;
37771;SDS011;23610;59.380;24.642;2022-08-19T12:11:12;6.57;;;3.63;;
37771;SDS011;23610;59.380;24.642;2022-08-19T12:16:22;11.35;;;4.35;;
37771;SDS011;23610;59.380;24.642;2022-08-19T12:21:29;15.23;;;4.63;;
37771;SDS011;23610;59.380;24.642;2022-08-19T12:26:35;8.32;;;4.35;;
37771;SDS011;23610;59.380;24.642;2022-08-19T12:31:54;13.00;;;4.22;;
37771;SDS011;23610;59.380;24.642;2022-08-19T12:37:05;7.95;;;4.47;;
37771;SDS011;23610;59.380;24.642;2022-08-19T12:42:09;4.72;;;3.90;;
37771;SDS011;23610;59.380;24.642;2022-08-19T12:47:14;6.43;;;3.85;;
37771;SDS011;23610;59.380;24.642;2022-08-19T12:52:16;11.73;;;3.90;;
37771;SDS011;23610;59.380;24.642;2022-08-19T12:57:24;8.23;;;3.83;;
37771;SDS011;23610;59.380;24.642;2022-08-19T13:02:33;9.77;;;4.15;;
37771;SDS011;23610;59.380;24.642;2022-08-19T13:07:39;6.25;;;4.22;;
37771;SDS011;23610;59.380;24.642;2022-08-19T13:12:46;12.63;;;4.57;;
37771;SDS011;23610;59.380;24.642;2022-08-19T13:17:52;7.90;;;4.30;;
37771;SDS011;23610;59.380;24.642;2022-08-19T13:22:55;10.68;;;4.25;;
37771;SDS011;23610;59.380;24.642;2022-08-19T13:27:58;11.82;;;3.60;;
37771;SDS011;23610;59.380;24.642;2022-08-19T13:33:02;9.63;;;4.13;;
37771;SDS011;23610;59.380;24.642;2022-08-19T13:38:18;14.30;;;3.92;;
37771;SDS011;23610;59.380;24.642;2022-08-19T13:43:25;11.25;;;4.38;;
37771;SDS011;23610;59.380;24.642;2022-08-19T13:48:28;9.80;;;4.28;;
37771;SDS011;23610;59.380;24.642;2022-08-19T13:58:34;9.35;;;4.28;;
37771;SDS011;23610;59.380;24.642;2022-08-19T14:08:40;5.70;;;4.95;;
37771;SDS011;23610;59.380;24.642;2022-08-19T14:13:46;13.25;;;5.38;;
37771;SDS011;23610;59.380;24.642;2022-08-19T14:18:50;8.50;;;4.95;;
37771;SDS011;23610;59.380;24.642;2022-08-19T14:23:54;16.75;;;6.32;;
37771;SDS011;23610;59.380;24.642;2022-08-19T14:28:57;9.52;;;5.30;;
37771;SDS011;23610;59.380;24.642;2022-08-19T14:34:00;7.70;;;5.53;;
37771;SDS011;23610;59.380;24.642;2022-08-19T14:39:03;11.00;;;6.65;;
37771;SDS011;23610;59.380;24.642;2022-08-19T14:49:11;16.95;;;6.60;;
37771;SDS011;23610;59.380;24.642;2022-08-19T14:54:13;12.30;;;5.57;;
37771;SDS011;23610;59.380;24.642;2022-08-19T15:04:20;12.85;;;5.00;;
37771;SDS011;23610;59.380;24.642;2022-08-19T15:09:22;7.90;;;4.78;;
37771;SDS011;23610;59.380;24.642;2022-08-19T15:14:25;15.77;;;5.78;;
37771;SDS011;23610;59.380;24.642;2022-08-19T15:19:29;9.07;;;4.47;;
37771;SDS011;23610;59.380;24.642;2022-08-19T15:24:34;9.68;;;6.43;;
37771;SDS011;23610;59.380;24.642;2022-08-19T15:29:48;7.38;;;5.10;;
37771;SDS011;23610;59.380;24.642;2022-08-19T15:34:56;12.82;;;5.43;;
37771;SDS011;23610;59.380;24.642;2022-08-19T15:39:59;11.23;;;5.75;;
37771;SDS011;23610;59.380;24.642;2022-08-19T15:45:04;9.97;;;5.77;;
37771;SDS011;23610;59.380;24.642;2022-08-19T15:50:09;12.35;;;6.88;;
37771;SDS011;23610;59.380;24.642;2022-08-19T15:55:16;15.27;;;7.32;;
37771;SDS011;23610;59.380;24.642;2022-08-19T16:00:34;13.55;;;8.48;;
37771;SDS011;23610;59.380;24.642;2022-08-19T16:05:55;17.90;;;8.93;;
37771;SDS011;23610;59.380;24.642;2022-08-19T16:11:18;18.05;;;9.88;;
37771;SDS011;23610;59.380;24.642;2022-08-19T16:16:24;13.98;;;9.63;;
37771;SDS011;23610;59.380;24.642;2022-08-19T16:21:34;19.38;;;9.43;;
37771;SDS011;23610;59.380;24.642;2022-08-19T16:26:41;14.45;;;9.60;;
37771;SDS011;23610;59.380;24.642;2022-08-19T16:31:45;13.98;;;9.02;;
37771;SDS011;23610;59.380;24.642;2022-08-19T16:36:50;15.10;;;10.10;;
37771;SDS011;23610;59.380;24.642;2022-08-19T16:41:52;12.85;;;8.68;;
37771;SDS011;23610;59.380;24.642;2022-08-19T16:46:56;14.07;;;8.32;;
37771;SDS011;23610;59.380;24.642;2022-08-19T16:52:00;18.35;;;8.60;;
37771;SDS011;23610;59.380;24.642;2022-08-19T16:57:03;15.30;;;9.68;;
37771;SDS011;23610;59.380;24.642;2022-08-19T17:02:12;15.30;;;9.25;;
37771;SDS011;23610;59.380;24.642;2022-08-19T17:07:14;18.38;;;9.13;;
37771;SDS011;23610;59.380;24.642;2022-08-19T17:12:17;11.43;;;7.90;;
37771;SDS011;23610;59.380;24.642;2022-08-19T17:17:20;13.48;;;8.38;;
37771;SDS011;23610;59.380;24.642;2022-08-19T17:22:29;14.35;;;8.40;;
37771;SDS011;23610;59.380;24.642;2022-08-19T17:27:32;12.35;;;7.85;;
37771;SDS011;23610;59.380;24.642;2022-08-19T17:32:34;14.60;;;9.55;;
37771;SDS011;23610;59.380;24.642;2022-08-19T17:37:37;11.43;;;8.40;;
37771;SDS011;23610;59.380;24.642;2022-08-19T17:42:39;18.55;;;8.57;;
37771;SDS011;23610;59.380;24.642;2022-08-19T17:47:42;14.38;;;8.80;;
37771;SDS011;23610;59.380;24.642;2022-08-19T17:52:45;12.80;;;7.97;;
37771;SDS011;23610;59.380;24.642;2022-08-19T17:57:48;11.73;;;7.83;;
37771;SDS011;23610;59.380;24.642;2022-08-19T18:02:53;13.20;;;8.10;;
37771;SDS011;23610;59.380;24.642;2022-08-19T18:08:02;20.05;;;9.65;;
37771;SDS011;23610;59.380;24.642;2022-08-19T18:13:04;14.23;;;7.73;;
37771;SDS011;23610;59.380;24.642;2022-08-19T18:18:18;16.73;;;8.23;;
37771;SDS011;23610;59.380;24.642;2022-08-19T18:23:21;14.23;;;8.85;;
37771;SDS011;23610;59.380;24.642;2022-08-19T18:28:44;8.95;;;7.32;;
37771;SDS011;23610;59.380;24.642;2022-08-19T18:33:50;12.15;;;6.50;;
37771;SDS011;23610;59.380;24.642;2022-08-19T18:38:57;14.30;;;7.15;;
37771;SDS011;23610;59.380;24.642;2022-08-19T18:44:21;16.98;;;7.18;;
37771;SDS011;23610;59.380;24.642;2022-08-19T18:49:42;17.25;;;7.70;;
37771;SDS011;23610;59.380;24.642;2022-08-19T18:54:44;18.20;;;10.45;;
37771;SDS011;23610;59.380;24.642;2022-08-19T18:59:47;12.23;;;7.35;;
37771;SDS011;23610;59.380;24.642;2022-08-19T19:04:50;10.02;;;6.78;;
37771;SDS011;23610;59.380;24.642;2022-08-19T19:09:53;10.73;;;7.00;;
37771;SDS011;23610;59.380;24.642;2022-08-19T19:14:55;10.20;;;6.53;;
37771;SDS011;23610;59.380;24.642;2022-08-19T19:19:59;12.27;;;7.10;;
37771;SDS011;23610;59.380;24.642;2022-08-19T19:25:02;13.25;;;7.07;;
37771;SDS011;23610;59.380;24.642;2022-08-19T19:30:06;20.63;;;7.40;;
37771;SDS011;23610;59.380;24.642;2022-08-19T19:35:10;10.80;;;6.43;;
37771;SDS011;23610;59.380;24.642;2022-08-19T19:40:12;12.32;;;7.22;;
37771;SDS011;23610;59.380;24.642;2022-08-19T19:45:15;8.82;;;6.75;;
37771;SDS011;23610;59.380;24.642;2022-08-19T19:50:18;14.82;;;7.85;;
37771;SDS011;23610;59.380;24.642;2022-08-19T19:55:21;10.85;;;7.00;;
37771;SDS011;23610;59.380;24.642;2022-08-19T20:00:27;12.30;;;6.70;;
37771;SDS011;23610;59.380;24.642;2022-08-19T20:05:30;13.85;;;6.68;;
37771;SDS011;23610;59.380;24.642;2022-08-19T20:10:33;9.98;;;6.82;;
37771;SDS011;23610;59.380;24.642;2022-08-19T20:15:38;17.27;;;6.30;;
37771;SDS011;23610;59.380;24.642;2022-08-19T20:20:44;10.48;;;6.97;;
37771;SDS011;23610;59.380;24.642;2022-08-19T20:25:50;10.18;;;6.70;;
37771;SDS011;23610;59.380;24.642;2022-08-19T20:30:53;10.65;;;6.63;;
37771;SDS011;23610;59.380;24.642;2022-08-19T20:35:58;10.23;;;6.03;;
37771;SDS011;23610;59.380;24.642;2022-08-19T20:41:01;12.35;;;6.22;;
37771;SDS011;23610;59.380;24.642;2022-08-19T20:46:05;8.43;;;5.32;;
37771;SDS011;23610;59.380;24.642;2022-08-19T20:51:09;12.13;;;6.53;;
37771;SDS011;23610;59.380;24.642;2022-08-19T20:56:12;8.13;;;5.68;;
37771;SDS011;23610;59.380;24.642;2022-08-19T21:01:15;18.38;;;5.82;;
37771;SDS011;23610;59.380;24.642;2022-08-19T21:06:18;8.80;;;5.32;;
37771;SDS011;23610;59.380;24.642;2022-08-19T21:11:23;13.57;;;5.88;;
37771;SDS011;23610;59.380;24.642;2022-08-19T21:16:26;12.98;;;5.60;;
37771;SDS011;23610;59.380;24.642;2022-08-19T21:21:29;10.18;;;5.20;;
37771;SDS011;23610;59.380;24.642;2022-08-19T21:26:33;9.13;;;4.80;;
37771;SDS011;23610;59.380;24.642;2022-08-19T21:31:36;13.90;;;5.00;;
37771;SDS011;23610;59.380;24.642;2022-08-19T21:36:39;9.32;;;5.25;;
37771;SDS011;23610;59.380;24.642;2022-08-19T21:41:41;7.93;;;4.93;;
37771;SDS011;23610;59.380;24.642;2022-08-19T21:46:44;8.88;;;4.57;;
37771;SDS011;23610;59.380;24.642;2022-08-19T21:51:51;11.77;;;4.68;;
37771;SDS011;23610;59.380;24.642;2022-08-19T21:56:53;13.38;;;4.30;;
37771;SDS011;23610;59.380;24.642;2022-08-19T22:01:56;12.90;;;4.75;;
37771;SDS011;23610;59.380;24.642;2022-08-19T22:07:19;9.90;;;4.57;;
37771;SDS011;23610;59.380;24.642;2022-08-19T22:17:29;14.50;;;4.65;;
37771;SDS011;23610;59.380;24.642;2022-08-19T22:22:33;10.18;;;4.20;;
37771;SDS011;23610;59.380;24.642;2022-08-19T22:27:37;10.00;;;4.53;;
37771;SDS011;23610;59.380;24.642;2022-08-19T22:32:44;10.25;;;4.63;;
37771;SDS011;23610;59.380;24.642;2022-08-19T22:37:57;21.80;;;5.43;;
37771;SDS011;23610;59.380;24.642;2022-08-19T22:43:02;8.40;;;4.25;;
37771;SDS011;23610;59.380;24.642;2022-08-19T22:48:09;8.98;;;4.18;;
37771;SDS011;23610;59.380;24.642;2022-08-19T22:53:14;5.53;;;3.67;;
37771;SDS011;23610;59.380;24.642;2022-08-19T22:58:17;8.70;;;4.07;;
37771;SDS011;23610;59.380;24.642;2022-08-19T23:03:28;11.13;;;4.20;;
37771;SDS011;23610;59.380;24.642;2022-08-19T23:08:31;10.32;;;4.70;;
37771;SDS011;23610;59.380;24.642;2022-08-19T23:13:34;7.47;;;4.45;;
37771;SDS011;23610;59.380;24.642;2022-08-19T23:18:37;12.88;;;4.28;;
37771;SDS011;23610;59.380;24.642;2022-08-19T23:23:40;7.82;;;4.80;;
37771;SDS011;23610;59.380;24.642;2022-08-19T23:28:43;10.85;;;4.68;;
37771;SDS011;23610;59.380;24.642;2022-08-19T23:34:03;15.75;;;4.97;;
37771;SDS011;23610;59.380;24.642;2022-08-19T23:39:06;5.05;;;4.13;;
37771;SDS011;23610;59.380;24.642;2022-08-19T23:44:09;8.70;;;4.90;;
37771;SDS011;23610;59.380;24.642;2022-08-19T23:49:15;14.80;;;5.32;;
37771;SDS011;23610;59.380;24.642;2022-08-19T23:54:18;8.07;;;4.10;;
37771;SDS011;23610;59.380;24.642;2022-08-19T23:59:20;6.68;;;3.90;;
